createdAt,value
2022-12-25T00:00:47.940Z,43.15
2022-12-25T00:03:46.702Z,42.95
2022-12-25T00:06:32.910Z,40.25
2022-12-25T00:09:18.791Z,44.00
2022-12-25T00:12:05.483Z,43.03
2022-12-25T00:14:51.370Z,39.97
2022-12-25T00:17:37.461Z,40.50
2022-12-25T00:20:24.029Z,41.20
2022-12-25T00:23:10.080Z,43.78
2022-12-25T00:25:56.217Z,48.75
2022-12-25T00:28:45.804Z,41.85
2022-12-25T00:31:31.967Z,41.50
2022-12-25T00:34:18.348Z,40.25
2022-12-25T00:37:04.288Z,40.88
2022-12-25T00:39:54.807Z,39.08
2022-12-25T00:42:40.645Z,41.22
2022-12-25T00:45:29.564Z,40.20
2022-12-25T00:48:15.873Z,38.45
2022-12-25T00:51:07.416Z,35.92
2022-12-25T00:53:54.416Z,35.67
2022-12-25T00:56:40.873Z,36.22
2022-12-25T00:59:26.761Z,37.65
2022-12-25T01:02:25.904Z,37.17
2022-12-25T01:05:12.421Z,37.55
2022-12-25T01:07:59.211Z,35.22
2022-12-25T01:10:54.000Z,34.63
2022-12-25T01:13:41.502Z,35.15
2022-12-25T01:16:28.222Z,34.80
2022-12-25T01:19:14.827Z,35.40
2022-12-25T01:22:01.048Z,35.58
2022-12-25T01:24:47.529Z,36.13
2022-12-25T01:27:33.988Z,35.70
2022-12-25T01:30:20.197Z,35.67
2022-12-25T01:33:06.598Z,34.60
2022-12-25T01:35:52.771Z,39.97
2022-12-25T01:38:39.049Z,36.70
2022-12-25T01:41:26.095Z,32.45
2022-12-25T01:44:14.807Z,31.60
2022-12-25T01:47:06.517Z,34.67
2022-12-25T01:49:52.213Z,32.78
2022-12-25T01:52:39.351Z,31.88
2022-12-25T01:55:26.762Z,30.65
2022-12-25T01:58:17.376Z,29.92
2022-12-25T02:01:03.250Z,30.98
2022-12-25T02:03:49.843Z,30.67
2022-12-25T02:06:35.872Z,28.25
2022-12-25T02:09:22.530Z,28.95
2022-12-25T02:12:10.456Z,32.22
2022-12-25T02:15:05.033Z,27.75
2022-12-25T02:18:03.289Z,27.15
2022-12-25T02:20:58.450Z,27.50
2022-12-25T02:24:24.911Z,28.58
2022-12-25T02:27:42.683Z,26.73
2022-12-25T02:30:35.018Z,25.90
2022-12-25T02:33:49.784Z,27.10
2022-12-25T02:36:54.430Z,26.10
2022-12-25T02:39:58.210Z,29.10
2022-12-25T02:43:09.088Z,25.27
2022-12-25T02:46:25.318Z,26.85
2022-12-25T02:49:36.753Z,29.20
2022-12-25T02:52:42.960Z,28.58
2022-12-25T02:55:52.966Z,26.60
2022-12-25T02:59:09.001Z,28.65
2022-12-25T03:02:14.635Z,26.80
2022-12-25T03:05:26.283Z,28.52
2022-12-25T03:08:16.691Z,28.17
2022-12-25T03:11:24.899Z,27.83
2022-12-25T03:14:29.440Z,28.13
2022-12-25T03:17:15.968Z,27.80
2022-12-25T03:20:21.104Z,27.30
2022-12-25T03:23:27.855Z,28.67
2022-12-25T03:26:32.729Z,27.67
2022-12-25T03:29:37.477Z,26.63
2022-12-25T03:32:32.829Z,27.10
2022-12-25T03:35:31.267Z,28.98
2022-12-25T03:38:52.166Z,28.42
2022-12-25T03:42:05.390Z,28.05
2022-12-25T03:45:26.913Z,32.42
2022-12-25T03:48:33.234Z,29.67
2022-12-25T03:51:41.779Z,29.10
2022-12-25T03:54:50.332Z,30.00
2022-12-25T03:57:58.001Z,30.30
2022-12-25T04:01:04.077Z,28.27
2022-12-25T04:04:08.830Z,28.42
2022-12-25T04:07:16.466Z,29.00
2022-12-25T04:10:21.122Z,28.85
2022-12-25T04:13:27.085Z,28.45
2022-12-25T04:16:31.765Z,26.95
2022-12-25T04:19:36.895Z,28.40
2022-12-25T04:22:41.715Z,29.75
2022-12-25T04:25:47.023Z,26.20
2022-12-25T04:28:51.840Z,25.83
2022-12-25T04:31:56.534Z,25.52
2022-12-25T04:35:01.786Z,27.05
2022-12-25T04:37:48.295Z,25.67
2022-12-25T04:40:34.276Z,26.90
2022-12-25T04:43:20.253Z,27.02
2022-12-25T04:46:06.490Z,30.55
2022-12-25T04:48:53.406Z,30.98
2022-12-25T04:51:39.641Z,28.83
2022-12-25T04:54:26.100Z,30.45
2022-12-25T04:57:12.613Z,29.55
2022-12-25T04:59:59.065Z,29.05
2022-12-25T05:02:45.479Z,28.10
2022-12-25T05:05:32.588Z,26.50
2022-12-25T05:08:18.656Z,27.98
2022-12-25T05:11:10.443Z,27.00
2022-12-25T05:16:44.047Z,21.27
2022-12-25T05:19:30.363Z,19.42
2022-12-25T05:22:16.784Z,20.88
2022-12-25T05:25:02.427Z,19.77
2022-12-25T05:27:53.879Z,24.35
2022-12-25T05:30:40.279Z,24.33
2022-12-25T05:33:27.064Z,17.10
2022-12-25T05:36:13.203Z,17.17
2022-12-25T05:39:00.352Z,15.65
2022-12-25T05:41:46.360Z,15.88
2022-12-25T05:44:33.177Z,16.75
2022-12-25T05:47:19.330Z,15.95
2022-12-25T05:50:07.452Z,14.30
2022-12-25T05:52:53.420Z,15.88
2022-12-25T05:55:43.820Z,14.65
2022-12-25T05:58:30.843Z,14.63
2022-12-25T06:01:20.687Z,15.10
2022-12-25T06:04:12.082Z,16.40
2022-12-25T06:06:59.038Z,19.70
2022-12-25T06:09:44.737Z,21.05
2022-12-25T06:12:31.269Z,18.02
2022-12-25T06:15:17.614Z,17.10
2022-12-25T06:18:04.731Z,16.92
2022-12-25T06:20:50.934Z,16.73
2022-12-25T06:23:38.063Z,15.35
2022-12-25T06:26:23.700Z,15.63
2022-12-25T06:29:10.589Z,14.75
2022-12-25T06:31:57.637Z,14.93
2022-12-25T06:34:44.013Z,15.60
2022-12-25T06:37:30.188Z,15.13
2022-12-25T06:40:17.492Z,16.13
2022-12-25T06:43:03.281Z,14.32
2022-12-25T06:45:53.248Z,15.07
2022-12-25T06:48:40.818Z,17.85
2022-12-25T06:51:29.295Z,26.35
2022-12-25T06:54:14.942Z,89.72
2022-12-25T06:57:01.582Z,63.28
2022-12-25T06:59:54.583Z,55.47
2022-12-25T07:02:47.652Z,40.38
2022-12-25T07:05:33.561Z,31.33
2022-12-25T07:08:19.549Z,20.20
2022-12-25T07:11:05.887Z,19.75
2022-12-25T07:13:52.932Z,19.65
2022-12-25T07:16:39.236Z,22.77
2022-12-25T07:19:26.826Z,18.92
2022-12-25T07:22:14.719Z,22.13
2022-12-25T07:25:01.600Z,20.98
2022-12-25T07:27:50.039Z,22.92
2022-12-25T07:30:38.806Z,25.73
2022-12-25T07:33:25.215Z,24.70
2022-12-25T07:36:12.966Z,22.45
2022-12-25T07:38:59.755Z,21.27
2022-12-25T07:41:47.611Z,18.70
2022-12-25T07:44:34.627Z,19.30
2022-12-25T07:47:20.872Z,20.00
2022-12-25T07:50:08.519Z,19.88
2022-12-25T07:52:55.906Z,20.58
2022-12-25T07:55:41.860Z,19.90
2022-12-25T07:58:35.336Z,20.83
2022-12-25T08:01:25.472Z,21.27
2022-12-25T08:04:14.929Z,22.02
2022-12-25T08:07:01.468Z,21.38
2022-12-25T08:09:48.307Z,22.65
2022-12-25T08:12:35.458Z,26.30
2022-12-25T08:15:23.045Z,24.73
2022-12-25T08:18:09.316Z,20.83
2022-12-25T08:20:56.009Z,20.55
2022-12-25T08:23:44.078Z,42.13
2022-12-25T08:26:31.463Z,38.97
2022-12-25T08:29:18.245Z,24.00
2022-12-25T08:32:04.862Z,55.60
2022-12-25T08:34:51.743Z,31.50
2022-12-25T08:37:39.418Z,24.60
2022-12-25T08:40:25.646Z,25.05
2022-12-25T08:43:11.825Z,27.80
2022-12-25T08:45:57.648Z,23.42
2022-12-25T08:48:46.052Z,36.38
2022-12-25T08:51:32.610Z,21.48
2022-12-25T08:54:18.540Z,34.05
2022-12-25T08:57:06.204Z,22.52
2022-12-25T08:59:53.089Z,20.52
2022-12-25T09:02:39.413Z,30.27
2022-12-25T09:05:26.855Z,29.95
2022-12-25T09:08:12.590Z,23.10
2022-12-25T09:11:08.862Z,13.02
2022-12-25T09:13:55.608Z,12.23
2022-12-25T09:16:43.321Z,10.73
2022-12-25T09:19:30.320Z,10.45
2022-12-25T09:22:16.959Z,12.82
2022-12-25T09:25:18.262Z,13.90
2022-12-25T09:28:10.591Z,12.75
2022-12-25T09:31:00.962Z,18.15
2022-12-25T09:33:47.583Z,15.98
2022-12-25T09:36:33.678Z,14.65
2022-12-25T09:39:20.393Z,11.98
2022-12-25T09:42:13.656Z,14.18
2022-12-25T09:45:03.592Z,13.82
2022-12-25T09:47:49.823Z,12.95
2022-12-25T09:50:46.536Z,12.68
2022-12-25T09:53:38.076Z,12.40
2022-12-25T09:56:26.231Z,16.58
2022-12-25T09:59:25.814Z,17.55
2022-12-25T10:02:31.082Z,23.50
2022-12-25T10:05:53.192Z,18.00
2022-12-25T10:09:01.402Z,17.35
2022-12-25T10:12:12.669Z,18.65
2022-12-25T10:15:17.155Z,24.00
2022-12-25T10:18:28.872Z,19.50
2022-12-25T10:21:18.656Z,21.58
2022-12-25T10:24:30.491Z,18.27
2022-12-25T10:27:30.357Z,28.67
2022-12-25T10:30:19.993Z,49.53
2022-12-25T10:36:01.325Z,33.47
2022-12-25T10:38:48.502Z,22.17
2022-12-25T10:42:11.074Z,27.85
2022-12-25T10:45:03.181Z,21.85
2022-12-25T10:47:54.398Z,17.90
2022-12-25T10:50:46.295Z,23.13
2022-12-25T10:54:00.219Z,27.42
2022-12-25T10:57:10.409Z,19.48
2022-12-25T11:00:01.519Z,32.38
2022-12-25T11:02:50.280Z,16.13
2022-12-25T11:05:39.012Z,16.25
2022-12-25T11:08:28.150Z,38.17
2022-12-25T11:11:21.092Z,65.10
2022-12-25T11:14:20.077Z,38.17
2022-12-25T11:17:25.974Z,61.92
2022-12-25T11:20:18.568Z,105.65
2022-12-25T11:23:10.478Z,100.03
2022-12-25T11:26:03.747Z,51.90
2022-12-25T11:28:54.376Z,119.57
2022-12-25T11:31:41.589Z,74.93
2022-12-25T11:34:34.107Z,32.08
2022-12-25T11:37:31.600Z,39.92
2022-12-25T11:40:36.294Z,107.93
2022-12-25T11:43:46.572Z,59.92
2022-12-25T11:46:41.899Z,59.85
2022-12-25T11:49:29.627Z,105.30
2022-12-25T11:52:17.520Z,105.20
2022-12-25T11:55:38.704Z,154.50
2022-12-25T11:58:35.471Z,46.60
2022-12-25T12:01:43.296Z,49.70
2022-12-25T12:04:48.355Z,58.20
2022-12-25T12:07:35.852Z,82.40
2022-12-25T12:10:28.659Z,62.17
2022-12-25T12:13:41.025Z,33.83
2022-12-25T12:16:26.987Z,33.58
2022-12-25T12:19:27.370Z,68.78
2022-12-25T12:22:25.497Z,55.10
2022-12-25T12:25:17.418Z,41.33
2022-12-25T12:28:05.853Z,49.75
2022-12-25T12:31:07.570Z,35.92
2022-12-25T12:36:41.889Z,42.75
2022-12-25T12:39:34.532Z,42.85
2022-12-25T12:42:31.717Z,51.00
2022-12-25T12:45:23.787Z,138.25
2022-12-25T12:48:21.912Z,75.10
2022-12-25T12:51:12.288Z,44.20
2022-12-25T12:54:25.731Z,80.40
2022-12-25T12:57:27.199Z,64.32
2022-12-25T13:03:29.268Z,38.95
2022-12-25T13:06:30.524Z,47.10
2022-12-25T13:09:57.079Z,40.67
2022-12-25T13:13:16.464Z,29.40
2022-12-25T13:16:07.535Z,34.25
2022-12-25T13:18:57.972Z,28.70
2022-12-25T13:22:02.965Z,48.20
2022-12-25T13:24:57.181Z,78.40
2022-12-25T13:28:16.185Z,63.83
2022-12-25T13:31:16.553Z,58.08
2022-12-25T13:34:13.302Z,64.75
2022-12-25T13:37:07.988Z,53.85
2022-12-25T13:40:00.927Z,52.30
2022-12-25T13:42:48.213Z,42.40
2022-12-25T13:45:40.976Z,40.13
2022-12-25T13:48:31.868Z,48.25
2022-12-25T13:51:24.776Z,51.90
2022-12-25T13:54:13.841Z,40.05
2022-12-25T13:57:00.139Z,62.33
2022-12-25T13:59:48.165Z,63.67
2022-12-25T14:02:38.644Z,45.65
2022-12-25T14:05:42.250Z,43.80
2022-12-25T14:08:37.953Z,38.22
2022-12-25T14:11:27.699Z,46.92
2022-12-25T14:14:20.938Z,32.05
2022-12-25T14:17:11.923Z,32.03
2022-12-25T14:20:07.614Z,41.38
2022-12-25T14:23:00.732Z,54.38
2022-12-25T14:25:55.532Z,79.30
2022-12-25T14:28:43.868Z,82.93
2022-12-25T14:31:30.635Z,83.88
2022-12-25T14:34:21.847Z,80.40
2022-12-25T14:37:32.502Z,89.88
2022-12-25T14:40:26.889Z,68.43
2022-12-25T14:43:25.475Z,63.97
2022-12-25T14:46:26.094Z,61.60
2022-12-25T14:49:25.473Z,55.33
2022-12-25T14:52:34.455Z,53.30
2022-12-25T14:55:26.989Z,42.38
2022-12-25T14:58:31.239Z,40.65
2022-12-25T15:01:32.648Z,41.72
2022-12-25T15:04:20.770Z,63.30
2022-12-25T15:07:30.415Z,83.60
2022-12-25T15:10:59.016Z,90.38
2022-12-25T15:13:30.274Z,83.90
2022-12-25T15:16:24.736Z,58.00
2022-12-25T15:19:26.607Z,46.78
2022-12-25T15:22:15.287Z,27.17
2022-12-25T15:25:04.381Z,41.33
2022-12-25T15:27:53.480Z,41.27
2022-12-25T15:30:42.252Z,45.55
2022-12-25T15:33:29.523Z,43.00
2022-12-25T15:36:15.782Z,29.20
2022-12-25T15:39:04.900Z,43.83
2022-12-25T15:42:09.832Z,51.47
2022-12-25T15:44:57.507Z,31.65
2022-12-25T15:47:47.135Z,31.05
2022-12-25T15:50:39.971Z,41.60
2022-12-25T15:53:35.172Z,46.05
2022-12-25T15:56:22.755Z,42.30
2022-12-25T15:59:15.210Z,46.45
2022-12-25T16:02:03.621Z,52.08
2022-12-25T16:04:52.725Z,41.05
2022-12-25T16:07:39.720Z,43.00
2022-12-25T16:10:34.909Z,54.10
2022-12-25T16:13:27.077Z,54.60
2022-12-25T16:16:15.497Z,72.13
2022-12-25T16:19:02.621Z,58.13
2022-12-25T16:21:51.027Z,50.95
2022-12-25T16:24:38.597Z,60.65
2022-12-25T16:27:27.353Z,58.20
2022-12-25T16:30:17.624Z,43.88
2022-12-25T16:33:04.133Z,37.95
2022-12-25T16:35:52.828Z,38.30
2022-12-25T16:38:38.935Z,32.65
2022-12-25T16:41:26.152Z,44.13
2022-12-25T16:44:12.363Z,47.63
2022-12-25T16:46:59.502Z,44.20
2022-12-25T16:49:45.775Z,43.83
2022-12-25T16:52:50.402Z,39.33
2022-12-25T16:56:08.111Z,33.78
2022-12-25T16:59:16.812Z,39.67
2022-12-25T17:02:06.200Z,37.35
2022-12-25T17:05:05.627Z,41.03
2022-12-25T17:07:53.975Z,33.55
2022-12-25T17:12:13.709Z,40.53
2022-12-25T17:15:09.996Z,36.55
2022-12-25T17:19:00.036Z,34.88
2022-12-25T17:23:20.558Z,34.13
2022-12-25T17:26:56.452Z,51.08
2022-12-25T17:29:54.222Z,40.10
2022-12-25T17:32:47.907Z,35.15
2022-12-25T17:35:43.658Z,72.43
2022-12-25T17:38:51.435Z,51.40
2022-12-25T17:41:46.638Z,36.65
2022-12-25T17:47:49.708Z,66.07
2022-12-25T17:50:41.587Z,48.13
2022-12-25T17:53:43.030Z,60.47
2022-12-25T17:56:31.887Z,66.80
2022-12-25T17:59:33.163Z,68.20
2022-12-25T18:02:24.134Z,66.40
2022-12-25T18:05:11.675Z,49.72
2022-12-25T18:08:00.774Z,64.63
2022-12-25T18:10:47.516Z,44.85
2022-12-25T18:13:43.741Z,50.33
2022-12-25T18:16:40.012Z,57.28
2022-12-25T18:19:31.428Z,52.45
2022-12-25T18:22:26.890Z,49.00
2022-12-25T18:25:15.023Z,42.65
2022-12-25T18:36:03.170Z,38.97
2022-12-25T18:40:10.060Z,65.45
2022-12-25T18:43:53.960Z,40.08
2022-12-25T18:46:30.357Z,47.05
2022-12-25T18:49:17.785Z,39.33
2022-12-25T18:52:48.462Z,35.25
2022-12-25T18:55:11.803Z,33.17
2022-12-25T18:57:59.202Z,36.90
2022-12-25T19:00:45.302Z,31.00
2022-12-25T19:03:32.090Z,33.20
2022-12-25T19:06:20.376Z,45.38
2022-12-25T19:09:12.396Z,35.10
2022-12-25T19:11:58.092Z,34.35
2022-12-25T19:14:48.595Z,40.67
2022-12-25T19:20:27.251Z,39.65
2022-12-25T19:23:16.295Z,36.13
2022-12-25T19:26:05.812Z,31.90
2022-12-25T19:28:52.678Z,36.65
2022-12-25T19:42:23.238Z,37.67
2022-12-25T19:45:10.971Z,30.50
2022-12-25T19:48:03.785Z,31.05
2022-12-25T19:50:54.800Z,28.70
2022-12-25T19:54:09.263Z,31.77
2022-12-25T19:57:26.123Z,30.42
2022-12-25T20:00:38.481Z,29.40
2022-12-25T20:04:02.084Z,27.30
2022-12-25T20:07:10.443Z,33.70
2022-12-25T20:10:09.602Z,30.95
2022-12-25T20:13:09.401Z,29.35
2022-12-25T20:16:15.052Z,27.35
2022-12-25T20:19:18.917Z,29.92
2022-12-25T20:22:08.941Z,26.55
2022-12-25T20:25:09.083Z,28.27
2022-12-25T20:28:26.838Z,26.50
2022-12-25T20:31:32.813Z,27.00
2022-12-25T20:34:25.673Z,25.95
2022-12-25T20:37:27.095Z,27.70
2022-12-25T20:40:22.683Z,27.70
2022-12-25T20:43:45.473Z,30.80
2022-12-25T20:46:54.497Z,30.38
2022-12-25T20:50:15.217Z,25.38
2022-12-25T20:53:12.514Z,28.85
2022-12-25T20:56:04.973Z,26.15
2022-12-25T20:59:09.809Z,34.40
2022-12-25T21:08:38.249Z,25.77
2022-12-25T21:11:48.092Z,27.35
2022-12-25T21:15:15.728Z,24.80
2022-12-25T21:18:13.520Z,21.35
2022-12-25T21:21:44.407Z,26.27
2022-12-25T21:25:07.975Z,24.55
2022-12-25T21:28:03.973Z,31.60
2022-12-25T21:30:55.662Z,39.70
2022-12-25T21:34:04.409Z,26.60
2022-12-25T21:37:01.300Z,25.67
2022-12-25T21:40:16.172Z,31.48
2022-12-25T21:46:29.164Z,38.10
2022-12-25T21:49:48.312Z,35.65
2022-12-25T21:52:48.602Z,30.50
2022-12-25T21:56:43.912Z,36.83
2022-12-25T21:59:42.004Z,41.30
2022-12-25T22:02:36.330Z,48.60
2022-12-25T22:05:44.179Z,29.25
2022-12-25T22:08:41.948Z,34.72
2022-12-25T22:12:13.526Z,28.70
2022-12-25T22:15:09.880Z,33.75
2022-12-25T22:18:21.981Z,41.58
2022-12-25T22:21:24.888Z,36.55
2022-12-25T22:24:28.892Z,42.13
2022-12-25T22:27:23.307Z,38.30
2022-12-25T22:30:36.536Z,34.40
2022-12-25T22:33:31.821Z,31.27
2022-12-25T22:36:37.065Z,34.67
2022-12-25T22:39:29.203Z,39.10
2022-12-25T22:42:28.810Z,29.88
2022-12-25T22:45:26.950Z,29.70
2022-12-25T22:48:26.653Z,28.67
2022-12-25T22:51:24.616Z,36.63
2022-12-25T22:54:20.207Z,31.45
2022-12-25T22:57:10.210Z,34.47
2022-12-25T23:00:07.206Z,30.05
2022-12-25T23:03:13.959Z,27.45
2022-12-25T23:06:07.148Z,29.50
2022-12-25T23:09:40.903Z,35.55
2022-12-25T23:12:58.729Z,30.67
2022-12-25T23:16:01.967Z,30.73
2022-12-25T23:19:24.208Z,27.17
2022-12-25T23:22:34.556Z,25.05
2022-12-25T23:25:52.121Z,26.88
2022-12-25T23:29:20.797Z,27.00
2022-12-25T23:32:29.964Z,26.23
2022-12-25T23:35:27.536Z,28.83
2022-12-25T23:38:25.630Z,27.70
2022-12-25T23:41:23.794Z,28.88
2022-12-25T23:44:28.413Z,29.55
2022-12-25T23:47:21.558Z,28.88
2022-12-25T23:50:08.372Z,30.52
2022-12-25T23:56:53.010Z,29.15
2022-12-25T23:59:51.343Z,28.00
